createdAt,value
2018-08-24T00:01:25.582Z,12.50
2018-08-24T00:03:54.390Z,13.03
2018-08-24T00:06:23.205Z,12.20
2018-08-24T00:08:52.135Z,12.23
2018-08-24T00:11:20.956Z,12.58
2018-08-24T00:13:49.762Z,12.65
2018-08-24T00:16:23.799Z,12.10
2018-08-24T00:18:52.625Z,12.65
2018-08-24T00:21:21.429Z,12.63
2018-08-24T00:23:50.284Z,12.20
2018-08-24T00:26:19.104Z,12.68
2018-08-24T00:28:47.922Z,12.03
2018-08-24T00:31:17.227Z,13.10
2018-08-24T00:33:54.519Z,12.00
2018-08-24T00:36:26.352Z,12.30
2018-08-24T00:38:55.728Z,12.85
2018-08-24T00:41:24.535Z,12.47
2018-08-24T00:43:53.387Z,11.68
2018-08-24T00:46:23.128Z,12.10
2018-08-24T00:48:51.962Z,12.90
2018-08-24T00:51:20.827Z,12.70
2018-08-24T00:53:49.659Z,12.85
2018-08-24T00:56:18.481Z,12.03
2018-08-24T00:58:47.352Z,13.08
2018-08-24T01:01:16.178Z,12.30
2018-08-24T01:03:45.053Z,12.68
2018-08-24T01:06:14.180Z,12.28
2018-08-24T01:08:44.711Z,13.10
2018-08-24T01:11:13.567Z,13.13
2018-08-24T01:13:42.423Z,12.78
2018-08-24T01:16:15.400Z,12.15
2018-08-24T01:18:49.360Z,12.53
2018-08-24T01:21:18.171Z,12.15
2018-08-24T01:23:46.996Z,12.90
2018-08-24T01:26:20.016Z,12.75
2018-08-24T01:28:48.828Z,12.60
2018-08-24T01:31:17.663Z,12.53
2018-08-24T01:33:46.521Z,12.93
2018-08-24T01:36:15.359Z,13.00
2018-08-24T01:38:44.197Z,13.03
2018-08-24T01:41:13.064Z,13.03
2018-08-24T01:43:41.909Z,12.65
2018-08-24T01:46:13.247Z,13.55
2018-08-24T01:48:42.603Z,13.20
2018-08-24T01:51:11.500Z,13.78
2018-08-24T01:53:40.412Z,13.10
2018-08-24T01:56:09.249Z,12.70
2018-08-24T01:58:38.073Z,13.00
2018-08-24T02:01:06.943Z,13.90
2018-08-24T02:03:35.771Z,14.10
2018-08-24T02:06:06.244Z,13.83
2018-08-24T02:08:36.227Z,13.65
2018-08-24T02:11:10.767Z,13.40
2018-08-24T02:13:46.265Z,13.85
2018-08-24T02:16:15.143Z,13.35
2018-08-24T02:18:49.216Z,13.45
2018-08-24T02:21:23.172Z,13.35
2018-08-24T02:23:52.021Z,13.72
2018-08-24T02:26:20.859Z,14.00
2018-08-24T02:28:49.702Z,14.75
2018-08-24T02:31:18.719Z,14.43
2018-08-24T02:33:47.495Z,13.48
2018-08-24T02:36:16.314Z,13.62
2018-08-24T02:38:45.213Z,14.47
2018-08-24T02:41:14.033Z,14.13
2018-08-24T02:43:42.851Z,14.38
2018-08-24T02:46:11.764Z,13.75
2018-08-24T02:48:40.580Z,14.10
2018-08-24T02:51:09.424Z,14.18
2018-08-24T02:53:38.296Z,14.40
2018-08-24T02:56:07.260Z,14.95
2018-08-24T02:58:36.096Z,14.55
2018-08-24T03:01:05.032Z,13.88
2018-08-24T03:03:33.827Z,14.30
2018-08-24T03:06:02.642Z,14.93
2018-08-24T03:08:31.525Z,15.05
2018-08-24T03:11:00.361Z,14.70
2018-08-24T03:13:29.194Z,14.50
2018-08-24T03:15:58.199Z,14.47
2018-08-24T03:18:27.025Z,14.38
2018-08-24T03:20:55.848Z,14.78
2018-08-24T03:23:24.770Z,14.53
2018-08-24T03:25:53.595Z,14.40
2018-08-24T03:28:22.435Z,14.37
2018-08-24T03:30:51.332Z,14.70
2018-08-24T03:33:20.148Z,14.83
2018-08-24T03:35:48.972Z,15.15
2018-08-24T03:38:17.831Z,15.68
2018-08-24T03:40:46.662Z,15.32
2018-08-24T03:43:15.494Z,15.58
2018-08-24T03:45:44.380Z,15.55
2018-08-24T03:48:13.237Z,15.48
2018-08-24T03:50:42.069Z,15.07
2018-08-24T03:53:10.967Z,15.25
2018-08-24T03:55:40.207Z,14.38
2018-08-24T03:58:09.080Z,15.38
2018-08-24T04:00:37.971Z,15.35
2018-08-24T04:03:06.857Z,16.23
2018-08-24T04:05:35.683Z,15.05
2018-08-24T04:08:04.535Z,15.65
2018-08-24T04:10:33.336Z,15.35
2018-08-24T04:13:02.164Z,15.72
2018-08-24T04:15:31.013Z,15.98
2018-08-24T04:17:59.839Z,16.50
2018-08-24T04:20:28.649Z,15.40
2018-08-24T04:22:57.523Z,15.68
2018-08-24T04:25:26.366Z,15.90
2018-08-24T04:27:55.185Z,14.95
2018-08-24T04:30:24.065Z,15.50
2018-08-24T04:32:52.895Z,15.40
2018-08-24T04:35:21.758Z,14.98
2018-08-24T04:37:50.640Z,14.53
2018-08-24T04:40:19.601Z,16.35
2018-08-24T04:42:48.382Z,16.80
2018-08-24T04:45:17.369Z,16.37
2018-08-24T04:47:46.196Z,16.35
2018-08-24T04:50:21.714Z,15.88
2018-08-24T04:52:50.568Z,16.30
2018-08-24T04:55:19.414Z,16.00
2018-08-24T04:57:48.372Z,15.95
2018-08-24T05:00:17.336Z,16.10
2018-08-24T05:02:46.527Z,15.83
2018-08-24T05:05:15.430Z,16.27
2018-08-24T05:07:44.338Z,16.12
2018-08-24T05:10:13.163Z,15.75
2018-08-24T05:12:42.165Z,17.23
2018-08-24T05:15:11.061Z,17.70
2018-08-24T05:17:40.098Z,17.00
2018-08-24T05:20:08.984Z,15.80
2018-08-24T05:22:38.041Z,17.80
2018-08-24T05:25:07.237Z,15.88
2018-08-24T05:27:36.084Z,16.17
2018-08-24T05:30:05.054Z,16.97
2018-08-24T05:32:34.003Z,14.95
2018-08-24T05:35:02.882Z,15.23
2018-08-24T05:37:31.707Z,17.05
2018-08-24T05:40:00.633Z,16.87
2018-08-24T05:42:29.464Z,17.10
2018-08-24T05:44:58.297Z,18.55
2018-08-24T05:47:27.323Z,18.07
2018-08-24T05:49:56.155Z,17.37
2018-08-24T05:52:24.988Z,17.92
2018-08-24T05:54:53.893Z,18.07
2018-08-24T05:57:22.772Z,17.57
2018-08-24T05:59:51.629Z,17.25
2018-08-24T06:02:20.500Z,17.92
2018-08-24T06:04:49.383Z,17.37
2018-08-24T06:07:21.961Z,16.55
2018-08-24T06:09:50.866Z,17.10
2018-08-24T06:12:19.699Z,17.73
2018-08-24T06:14:48.693Z,17.65
2018-08-24T06:17:22.610Z,16.67
2018-08-24T06:19:51.491Z,17.17
2018-08-24T06:22:20.328Z,17.35
2018-08-24T06:24:49.173Z,16.23
2018-08-24T06:27:18.239Z,16.30
2018-08-24T06:29:47.059Z,16.82
2018-08-24T06:32:16.086Z,16.80
2018-08-24T06:34:44.954Z,16.75
2018-08-24T06:37:13.792Z,16.55
2018-08-24T06:39:42.701Z,16.95
2018-08-24T06:42:11.521Z,15.48
2018-08-24T06:44:46.635Z,16.40
2018-08-24T06:47:15.472Z,17.30
2018-08-24T06:49:44.732Z,16.90
2018-08-24T06:52:14.112Z,16.70
2018-08-24T06:54:42.934Z,17.07
2018-08-24T06:57:11.765Z,16.95
2018-08-24T06:59:41.185Z,17.62
2018-08-24T07:02:10.019Z,16.70
2018-08-24T07:04:39.627Z,17.73
2018-08-24T07:07:08.486Z,17.32
2018-08-24T07:09:38.985Z,17.00
2018-08-24T07:12:09.955Z,16.73
2018-08-24T07:14:39.016Z,17.82
2018-08-24T07:17:07.846Z,17.40
2018-08-24T07:19:36.806Z,17.40
2018-08-24T07:22:05.944Z,17.37
2018-08-24T07:24:34.848Z,18.30
2018-08-24T07:27:03.784Z,17.32
2018-08-24T07:29:32.677Z,17.90
2018-08-24T07:32:01.553Z,16.42
2018-08-24T07:34:30.460Z,16.23
2018-08-24T07:36:59.302Z,17.85
2018-08-24T07:39:28.128Z,16.75
2018-08-24T07:41:57.120Z,17.07
2018-08-24T07:44:36.635Z,16.95
2018-08-24T07:47:05.545Z,16.50
2018-08-24T07:49:34.377Z,16.00
2018-08-24T07:52:03.259Z,15.85
2018-08-24T07:54:32.256Z,16.10
2018-08-24T07:57:01.106Z,16.10
2018-08-24T07:59:31.207Z,16.55
2018-08-24T08:02:00.079Z,16.40
2018-08-24T08:04:28.942Z,16.30
2018-08-24T08:06:57.853Z,15.40
2018-08-24T08:09:26.688Z,15.58
2018-08-24T08:11:55.575Z,16.75
2018-08-24T08:14:25.133Z,16.32
2018-08-24T08:17:00.137Z,17.12
2018-08-24T08:19:30.219Z,16.70
2018-08-24T08:22:00.222Z,16.50
2018-08-24T08:24:29.285Z,17.32
2018-08-24T08:26:59.273Z,17.42
2018-08-24T08:30:05.214Z,16.23
2018-08-24T08:32:34.232Z,16.32
2018-08-24T08:35:03.072Z,16.90
2018-08-24T08:37:32.660Z,15.75
2018-08-24T08:40:02.859Z,16.45
2018-08-24T08:42:31.748Z,15.72
2018-08-24T08:45:01.176Z,16.60
2018-08-24T08:47:30.018Z,15.88
2018-08-24T08:49:58.863Z,15.80
2018-08-24T08:52:27.794Z,16.00
2018-08-24T08:54:56.719Z,15.83
2018-08-24T08:57:25.578Z,16.90
2018-08-24T08:59:54.431Z,16.37
2018-08-24T09:02:23.291Z,15.98
2018-08-24T09:04:52.272Z,15.90
2018-08-24T09:07:21.185Z,15.63
2018-08-24T09:09:50.017Z,15.88
2018-08-24T09:12:19.237Z,15.78
2018-08-24T09:14:48.239Z,14.50
2018-08-24T09:17:22.117Z,16.02
2018-08-24T09:19:56.257Z,15.72
2018-08-24T09:22:30.388Z,15.53
2018-08-24T09:25:04.481Z,15.63
2018-08-24T09:28:39.240Z,14.13
2018-08-24T09:31:14.696Z,15.35
2018-08-24T09:33:43.554Z,14.70
2018-08-24T09:36:17.731Z,14.55
2018-08-24T09:38:46.567Z,14.80
2018-08-24T09:41:15.414Z,14.58
2018-08-24T09:43:49.593Z,14.80
2018-08-24T09:46:18.476Z,14.68
2018-08-24T09:48:52.523Z,14.73
2018-08-24T09:51:28.865Z,15.15
2018-08-24T09:54:07.570Z,14.73
2018-08-24T09:56:37.755Z,14.47
2018-08-24T09:59:06.680Z,15.08
2018-08-24T10:01:40.632Z,14.58
2018-08-24T10:04:14.894Z,14.95
2018-08-24T10:06:49.086Z,14.90
2018-08-24T10:09:17.889Z,15.58
2018-08-24T10:11:46.867Z,14.95
2018-08-24T10:14:15.787Z,15.32
2018-08-24T10:16:44.607Z,15.10
2018-08-24T10:19:14.615Z,14.75
2018-08-24T10:21:43.775Z,14.30
2018-08-24T10:24:12.643Z,14.65
2018-08-24T10:26:41.505Z,13.45
2018-08-24T10:29:10.439Z,14.53
2018-08-24T10:31:39.441Z,14.43
2018-08-24T10:34:08.365Z,14.95
2018-08-24T10:36:37.287Z,14.25
2018-08-24T10:39:08.667Z,14.45
2018-08-24T10:41:37.525Z,14.10
2018-08-24T10:44:06.571Z,14.60
2018-08-24T10:46:35.409Z,15.00
2018-08-24T10:49:04.894Z,14.30
2018-08-24T10:51:33.710Z,13.83
2018-08-24T10:54:02.620Z,13.03
2018-08-24T10:56:31.504Z,14.10
2018-08-24T10:59:00.354Z,15.48
2018-08-24T11:01:29.226Z,14.73
2018-08-24T11:03:58.124Z,14.30
2018-08-24T11:06:27.124Z,14.93
2018-08-24T11:08:55.972Z,14.15
2018-08-24T11:11:24.995Z,14.30
2018-08-24T11:13:53.872Z,14.13
2018-08-24T11:16:22.755Z,14.95
2018-08-24T11:18:51.715Z,14.25
2018-08-24T11:21:20.634Z,14.28
2018-08-24T11:23:49.470Z,13.80
2018-08-24T11:26:18.351Z,14.07
2018-08-24T11:28:48.174Z,13.25
2018-08-24T11:31:17.023Z,13.08
2018-08-24T11:33:45.894Z,13.38
2018-08-24T11:36:14.888Z,13.30
2018-08-24T11:38:43.709Z,13.48
2018-08-24T11:41:12.557Z,13.55
2018-08-24T11:43:41.437Z,12.10
2018-08-24T11:46:11.905Z,12.70
2018-08-24T11:48:40.734Z,12.85
2018-08-24T11:51:09.597Z,11.95
2018-08-24T11:53:38.458Z,12.23
2018-08-24T11:56:07.578Z,11.75
2018-08-24T11:58:36.416Z,12.20
2018-08-24T12:01:05.339Z,12.65
2018-08-24T12:03:34.221Z,10.95
2018-08-24T12:06:03.109Z,12.23
2018-08-24T12:08:31.979Z,11.80
2018-08-24T12:11:00.834Z,10.68
2018-08-24T12:13:29.809Z,10.98
2018-08-24T12:15:58.638Z,10.43
2018-08-24T12:18:27.621Z,10.53
2018-08-24T12:20:56.456Z,10.48
2018-08-24T12:23:25.276Z,9.33
2018-08-24T12:25:54.111Z,9.60
2018-08-24T12:28:23.022Z,9.10
2018-08-24T12:30:52.017Z,9.78
2018-08-24T12:33:20.843Z,9.75
2018-08-24T12:35:49.777Z,9.43
2018-08-24T12:38:18.596Z,9.53
2018-08-24T12:40:47.412Z,9.68
2018-08-24T12:43:16.476Z,9.05
2018-08-24T12:45:45.283Z,9.78
2018-08-24T12:48:14.141Z,10.00
2018-08-24T12:50:42.987Z,9.45
2018-08-24T12:53:11.818Z,8.95
2018-08-24T12:55:40.623Z,8.93
2018-08-24T12:58:09.900Z,9.05
2018-08-24T13:00:38.720Z,8.85
2018-08-24T13:03:07.562Z,9.05
2018-08-24T13:05:36.423Z,9.33
2018-08-24T13:08:05.475Z,9.23
2018-08-24T13:10:34.290Z,9.80
2018-08-24T13:13:04.063Z,10.03
2018-08-24T13:15:32.931Z,9.10
2018-08-24T13:18:01.764Z,9.30
2018-08-24T13:20:30.639Z,9.35
2018-08-24T13:22:59.496Z,10.38
2018-08-24T13:25:28.314Z,9.10
2018-08-24T13:27:57.184Z,9.95
2018-08-24T13:30:26.091Z,9.65
2018-08-24T13:32:54.929Z,10.15
2018-08-24T13:35:23.863Z,9.73
2018-08-24T13:37:52.672Z,9.20
2018-08-24T13:40:21.683Z,8.95
2018-08-24T13:42:50.536Z,10.05
2018-08-24T13:45:19.570Z,10.38
2018-08-24T13:47:48.527Z,9.50
2018-08-24T13:50:17.336Z,10.08
2018-08-24T13:52:46.183Z,9.78
2018-08-24T13:55:15.056Z,9.48
2018-08-24T13:57:43.895Z,9.50
2018-08-24T14:00:12.815Z,9.65
2018-08-24T14:02:41.634Z,9.95
2018-08-24T14:05:10.520Z,9.60
2018-08-24T14:07:39.444Z,10.00
2018-08-24T14:10:08.293Z,9.18
2018-08-24T14:12:37.215Z,10.25
2018-08-24T14:15:06.069Z,9.55
2018-08-24T14:17:35.670Z,9.73
2018-08-24T14:20:04.781Z,9.90
2018-08-24T14:22:34.369Z,9.18
2018-08-24T14:25:03.680Z,10.10
2018-08-24T14:27:32.534Z,9.38
2018-08-24T14:30:01.469Z,9.23
2018-08-24T14:32:30.288Z,10.40
2018-08-24T14:34:59.823Z,9.40
2018-08-24T14:37:28.736Z,10.15
2018-08-24T14:39:57.571Z,10.50
2018-08-24T14:42:27.055Z,10.60
2018-08-24T14:44:55.906Z,10.38
2018-08-24T14:47:24.985Z,11.50
2018-08-24T14:49:53.899Z,11.83
2018-08-24T14:52:23.201Z,12.98
2018-08-24T14:54:52.091Z,12.35
2018-08-24T14:57:23.599Z,12.90
2018-08-24T14:59:53.028Z,13.35
2018-08-24T15:02:21.893Z,12.85
2018-08-24T15:04:50.813Z,12.37
2018-08-24T15:07:19.707Z,12.40
2018-08-24T15:09:48.629Z,12.50
2018-08-24T15:12:17.545Z,12.80
2018-08-24T15:14:46.499Z,13.70
2018-08-24T15:17:15.332Z,12.60
2018-08-24T15:19:44.224Z,12.73
2018-08-24T15:22:13.146Z,12.50
2018-08-24T15:24:42.009Z,12.68
2018-08-24T15:27:10.872Z,12.58
2018-08-24T15:29:39.905Z,12.80
2018-08-24T15:32:08.725Z,12.65
2018-08-24T15:34:37.651Z,13.05
2018-08-24T15:37:06.512Z,13.20
2018-08-24T15:39:35.343Z,12.93
2018-08-24T15:42:05.136Z,13.08
2018-08-24T15:44:33.991Z,13.08
2018-08-24T15:47:02.826Z,13.50
2018-08-24T15:49:31.716Z,13.75
2018-08-24T15:52:00.683Z,13.15
2018-08-24T15:54:29.550Z,12.98
2018-08-24T15:56:58.383Z,13.13
2018-08-24T15:59:27.673Z,13.00
2018-08-24T16:01:56.541Z,12.37
2018-08-24T16:04:25.355Z,12.53
2018-08-24T16:06:54.300Z,12.58
2018-08-24T16:09:23.236Z,13.35
2018-08-24T16:11:52.103Z,13.08
2018-08-24T16:14:21.069Z,13.40
2018-08-24T16:16:49.897Z,14.00
2018-08-24T16:19:19.116Z,12.33
2018-08-24T16:21:48.035Z,13.62
2018-08-24T16:24:17.019Z,13.22
2018-08-24T16:26:45.961Z,14.13
2018-08-24T16:29:14.855Z,14.28
2018-08-24T16:31:43.685Z,13.45
2018-08-24T16:34:12.775Z,13.40
2018-08-24T16:36:42.042Z,12.82
2018-08-24T16:39:11.231Z,11.83
2018-08-24T16:41:40.360Z,12.37
2018-08-24T16:44:09.353Z,11.48
2018-08-24T16:46:38.362Z,12.90
2018-08-24T16:49:07.325Z,12.47
2018-08-24T16:51:36.241Z,12.88
2018-08-24T16:54:05.092Z,12.43
2018-08-24T16:56:33.976Z,13.10
2018-08-24T16:59:02.912Z,12.50
2018-08-24T17:01:31.850Z,13.18
2018-08-24T17:04:00.693Z,12.55
2018-08-24T17:06:29.582Z,12.85
2018-08-24T17:08:58.453Z,13.03
2018-08-24T17:11:27.355Z,13.28
2018-08-24T17:13:56.202Z,12.35
2018-08-24T17:16:25.036Z,12.18
2018-08-24T17:18:53.969Z,12.43
2018-08-24T17:21:22.787Z,13.45
2018-08-24T17:23:51.632Z,13.40
2018-08-24T17:26:20.496Z,12.98
2018-08-24T17:28:49.508Z,12.82
2018-08-24T17:31:20.174Z,13.95
2018-08-24T17:33:49.852Z,13.90
2018-08-24T17:36:18.760Z,13.40
2018-08-24T17:38:48.217Z,12.37
2018-08-24T17:41:17.855Z,13.00
2018-08-24T17:43:48.120Z,12.93
2018-08-24T17:46:18.451Z,13.25
2018-08-24T17:48:49.069Z,12.73
2018-08-24T17:51:18.397Z,12.30
2018-08-24T17:53:47.242Z,12.73
2018-08-24T17:56:16.061Z,12.10
2018-08-24T17:58:44.933Z,12.37
2018-08-24T18:01:13.770Z,12.60
2018-08-24T18:03:42.727Z,12.30
2018-08-24T18:06:11.589Z,12.07
2018-08-24T18:08:40.411Z,13.55
2018-08-24T18:11:09.279Z,11.33
2018-08-24T18:13:38.256Z,13.15
2018-08-24T18:16:07.400Z,13.32
2018-08-24T18:18:36.345Z,12.40
2018-08-24T18:21:05.191Z,12.33
2018-08-24T18:23:34.903Z,12.40
2018-08-24T18:26:03.900Z,15.60
2018-08-24T18:28:32.748Z,15.83
2018-08-24T18:31:01.586Z,15.63
2018-08-24T18:33:30.635Z,13.70
2018-08-24T18:35:59.543Z,13.50
2018-08-24T18:38:28.465Z,15.38
2018-08-24T18:40:57.511Z,16.93
2018-08-24T18:43:26.412Z,16.32
2018-08-24T18:45:55.258Z,16.85
2018-08-24T18:48:24.271Z,16.55
2018-08-24T18:50:53.142Z,16.75
2018-08-24T18:53:22.151Z,14.28
2018-08-24T18:55:50.980Z,17.35
2018-08-24T18:58:19.814Z,17.57
2018-08-24T19:00:48.834Z,14.95
2018-08-24T19:03:17.945Z,14.70
2018-08-24T19:05:46.789Z,14.85
2018-08-24T19:08:15.637Z,15.65
2018-08-24T19:10:49.639Z,13.83
2018-08-24T19:13:18.758Z,13.83
2018-08-24T19:15:48.492Z,14.15
2018-08-24T19:18:22.535Z,14.78
2018-08-24T19:20:56.596Z,14.55
2018-08-24T19:23:25.478Z,17.12
2018-08-24T19:25:54.312Z,17.95
2018-08-24T19:28:28.421Z,14.93
2018-08-24T19:30:57.339Z,15.20
2018-08-24T19:33:26.344Z,15.68
2018-08-24T19:35:55.167Z,15.15
2018-08-24T19:38:24.042Z,15.55
2018-08-24T19:40:58.258Z,15.55
2018-08-24T19:43:27.081Z,15.60
2018-08-24T19:45:56.022Z,15.32
2018-08-24T19:48:30.108Z,15.50
2018-08-24T19:50:59.002Z,14.78
2018-08-24T19:53:27.969Z,15.32
2018-08-24T19:55:56.883Z,14.50
2018-08-24T19:58:31.116Z,15.72
2018-08-24T20:00:59.963Z,14.90
2018-08-24T20:03:28.807Z,15.23
2018-08-24T20:06:02.936Z,15.40
2018-08-24T20:08:36.935Z,14.78
2018-08-24T20:11:05.839Z,13.95
2018-08-24T20:13:34.719Z,14.95
2018-08-24T20:16:08.760Z,13.88
2018-08-24T20:18:37.666Z,14.83
2018-08-24T20:21:06.583Z,14.75
2018-08-24T20:23:35.970Z,13.90
2018-08-24T20:26:04.784Z,14.18
2018-08-24T20:28:34.070Z,13.78
2018-08-24T20:31:02.950Z,13.43
2018-08-24T20:33:31.833Z,13.55
2018-08-24T20:36:00.704Z,13.70
2018-08-24T20:38:29.577Z,13.70
2018-08-24T20:40:58.450Z,13.05
2018-08-24T20:43:27.266Z,13.20
2018-08-24T20:45:56.146Z,13.05
2018-08-24T20:48:24.975Z,12.35
2018-08-24T20:50:53.922Z,12.88
2018-08-24T20:53:22.788Z,12.65
2018-08-24T20:55:51.655Z,12.85
2018-08-24T20:58:20.523Z,12.70
2018-08-24T21:00:49.366Z,14.03
2018-08-24T21:03:18.222Z,12.82
2018-08-24T21:05:47.175Z,12.95
2018-08-24T21:08:15.974Z,13.32
2018-08-24T21:10:46.671Z,13.68
2018-08-24T21:13:15.667Z,13.15
2018-08-24T21:15:44.528Z,13.22
2018-08-24T21:18:13.348Z,13.83
2018-08-24T21:20:42.352Z,13.05
2018-08-24T21:23:11.198Z,13.65
2018-08-24T21:25:40.028Z,13.15
2018-08-24T21:28:08.925Z,12.35
2018-08-24T21:30:37.798Z,13.08
2018-08-24T21:33:07.601Z,12.10
2018-08-24T21:35:36.485Z,13.10
2018-08-24T21:38:06.144Z,12.33
2018-08-24T21:40:35.000Z,11.83
2018-08-24T21:43:03.879Z,13.20
2018-08-24T21:45:32.697Z,12.15
2018-08-24T21:48:01.538Z,11.90
2018-08-24T21:50:30.463Z,13.38
2018-08-24T21:52:59.337Z,12.33
2018-08-24T21:55:28.165Z,12.10
2018-08-24T21:57:57.091Z,12.85
2018-08-24T22:00:25.949Z,11.65
2018-08-24T22:02:54.783Z,13.15
2018-08-24T22:05:23.668Z,12.70
2018-08-24T22:07:52.488Z,12.55
2018-08-24T22:10:21.330Z,12.47
2018-08-24T22:12:50.219Z,12.70
2018-08-24T22:15:19.055Z,12.45
2018-08-24T22:17:47.896Z,15.83
2018-08-24T22:20:16.796Z,15.98
2018-08-24T22:22:45.643Z,15.85
2018-08-24T22:25:14.468Z,15.65
2018-08-24T22:27:43.341Z,14.58
2018-08-24T22:30:12.174Z,15.90
2018-08-24T22:32:41.040Z,15.25
2018-08-24T22:35:09.937Z,16.95
2018-08-24T22:37:38.771Z,15.90
2018-08-24T22:40:07.621Z,16.97
2018-08-24T22:42:36.499Z,16.50
2018-08-24T22:45:05.417Z,15.80
2018-08-24T22:47:34.248Z,16.97
2018-08-24T22:50:03.239Z,14.35
2018-08-24T22:52:32.099Z,16.20
2018-08-24T22:55:00.973Z,17.10
2018-08-24T22:57:29.873Z,15.58
2018-08-24T22:59:58.722Z,16.42
2018-08-24T23:02:27.591Z,16.00
2018-08-24T23:04:56.569Z,15.63
2018-08-24T23:07:25.403Z,16.43
2018-08-24T23:09:54.254Z,16.25
2018-08-24T23:12:23.155Z,16.73
2018-08-24T23:14:52.016Z,15.48
2018-08-24T23:17:20.853Z,16.70
2018-08-24T23:19:49.822Z,15.70
2018-08-24T23:22:18.681Z,13.87
2018-08-24T23:24:47.505Z,15.37
2018-08-24T23:27:16.387Z,13.93
2018-08-24T23:29:45.496Z,12.57
2018-08-24T23:32:14.349Z,12.18
2018-08-24T23:34:43.236Z,13.78
2018-08-24T23:37:12.083Z,15.30
2018-08-24T23:39:40.943Z,15.63
2018-08-24T23:42:09.909Z,16.30
2018-08-24T23:44:38.758Z,14.98
2018-08-24T23:47:07.606Z,16.12
2018-08-24T23:49:36.556Z,15.27
2018-08-24T23:52:05.477Z,15.07
2018-08-24T23:54:34.324Z,15.27
2018-08-24T23:57:03.213Z,13.20
2018-08-24T23:59:32.059Z,14.63
